CDT,Max TemperatureF,Mean TemperatureF,Min TemperatureF,Max Dew PointF,MeanDew PointF,Min DewpointF,Max Humidity, Mean Humidity, Min Humidity, Max Sea Level PressureIn, Mean Sea Level PressureIn, Min Sea Level PressureIn, Max VisibilityMiles, Mean VisibilityMiles, Min VisibilityMiles, Max Wind SpeedMPH, Mean Wind SpeedMPH, Max Gust SpeedMPH,PrecipitationIn, CloudCover, Events, WindDirDegrees
2014-7-1,82,75,68,69,63,58,93,70,47,29.89,29.81,29.70,10,10,10,20,10,26,T,2,Rain,270
2014-7-2,68,64,59,57,54,51,90,74,58,30.10,30.02,29.91,10,10,10,21,10,28,0.01,6,Rain,300
2014-7-3,78,67,56,56,54,50,93,67,41,30.21,30.16,30.10,10,10,10,15,6,19,0.00,2,,322
2014-7-4,79,69,58,58,54,49,86,62,38,30.30,30.26,30.22,10,10,10,12,5,19,0.00,1,,98
2014-7-5,76,68,60,65,59,53,81,72,63,30.23,30.14,30.02,10,9,4,17,8,23,0.10,3,Rain-Thunderstorm,165
2014-7-6,85,78,70,70,67,64,90,74,58,30.01,29.90,29.81,10,10,9,18,11,27,0.02,2,,209
2014-7-7,89,79,68,73,70,66,87,67,47,29.83,29.77,29.67,10,8,0,40,7,48,1.07,4,Fog-Rain-Thunderstorm,266
2014-7-8,81,73,64,67,63,57,93,69,45,29.92,29.82,29.70,10,9,1,20,11,25,0.24,3,Rain-Thunderstorm,278
2014-7-9,79,71,63,61,58,54,90,66,42,30.06,29.99,29.93,10,10,10,16,7,22,0.00,0,,312
2014-7-10,81,70,59,60,56,52,78,57,36,30.15,30.10,30.06,10,10,10,14,7,17,0.00,0,,135
2014-7-11,84,72,59,71,64,54,84,71,58,30.15,30.09,30.01,10,10,10,17,9,24,0.00,0,,151
2014-7-12,89,83,76,73,72,69,88,72,56,30.05,29.99,29.90,10,10,10,17,10,22,0.00,0,,212
2014-7-13,84,77,70,71,70,67,93,74,55,30.01,29.97,29.91,10,9,1,15,4,19,0.59,5,Rain-Thunderstorm,307
2014-7-14,79,68,57,70,62,50,93,68,43,30.01,29.92,29.88,10,10,6,18,9,24,0.02,3,Rain,284
2014-7-15,70,62,54,54,51,49,86,70,53,30.06,30.03,29.99,10,10,10,20,9,24,0.00,2,,318
2014-7-16,75,64,52,56,52,48,93,67,41,30.07,30.04,30.02,10,10,10,12,4,15,0.00,1,,317
2014-7-17,79,68,56,59,55,51,87,63,39,30.10,30.08,30.05,10,10,10,9,5,13,0.00,1,,165
2014-7-18,79,69,59,59,56,53,84,63,42,30.13,30.08,30.04,10,10,10,13,6,17,0.00,0,,133
2014-7-19,81,70,59,62,57,55,84,65,45,30.07,30.03,29.99,10,10,10,10,4,12,0.00,1,,136
2014-7-20,83,73,62,64,60,56,84,65,46,30.04,30.01,29.97,10,10,9,12,6,16,0.00,0,,165
2014-7-21,87,76,64,69,65,61,87,69,51,30.07,30.02,29.99,10,9,4,17,8,23,0.00,0,,169
2014-7-22,85,78,70,78,72,66,91,83,74,30.09,30.01,29.96,9,7,4,17,7,21,0.02,4,Rain-Thunderstorm,173
2014-7-23,82,72,62,76,65,57,91,70,48,30.13,30.09,30.01,10,10,6,20,11,25,0.00,2,,25
2014-7-24,78,67,56,59,55,50,87,65,42,30.16,30.10,29.99,10,10,10,12,5,19,0.00,0,,72
2014-7-25,77,69,60,65,59,53,93,77,60,30.14,29.98,29.83,10,8,2,26,10,37,0.71,4,Rain-Thunderstorm,134
2014-7-26,87,79,70,77,73,65,94,80,65,29.88,29.83,29.80,10,7,2,16,7,21,0.11,4,Rain-Thunderstorm,211
2014-7-27,84,74,64,74,67,57,100,72,43,30.01,29.88,29.80,10,5,0,26,12,33,0.00,4,Fog,324
2014-7-28,75,67,59,61,57,52,97,73,49,30.16,30.11,30.01,10,10,10,17,8,22,0.00,3,,340
2014-7-29,78,67,56,60,56,53,93,68,43,30.14,30.11,30.06,10,10,10,14,5,17,0.00,0,,290
2014-7-30,80,69,57,61,57,54,93,68,42,30.09,30.07,30.04,10,10,5,9,3,12,0.00,0,,288
2014-7-31,82,70,58,64,59,57,93,69,45,30.09,30.07,30.04,10,8,0,8,2,11,0.00,0,Fog,221